createdAt,value
2023-01-26T00:01:53.656Z,68.70
2023-01-26T00:04:21.897Z,71.37
2023-01-26T00:06:50.658Z,68.87
2023-01-26T00:09:18.667Z,70.00
2023-01-26T00:11:46.760Z,69.63
2023-01-26T00:14:14.828Z,68.07
2023-01-26T00:16:42.921Z,68.67
2023-01-26T00:19:12.325Z,70.50
2023-01-26T00:21:40.388Z,71.43
2023-01-26T00:24:08.895Z,71.00
2023-01-26T00:26:36.953Z,72.77
2023-01-26T00:29:04.992Z,70.20
2023-01-26T00:31:33.088Z,71.83
2023-01-26T00:34:01.170Z,70.87
2023-01-26T00:36:30.459Z,70.67
2023-01-26T00:38:58.589Z,68.50
2023-01-26T00:41:44.370Z,69.40
2023-01-26T00:44:12.449Z,72.30
2023-01-26T00:46:40.673Z,76.27
2023-01-26T00:49:08.819Z,75.10
2023-01-26T00:51:38.256Z,76.40
2023-01-26T00:54:06.360Z,72.23
2023-01-26T00:56:34.429Z,72.23
2023-01-26T00:59:02.533Z,74.80
2023-01-26T01:01:30.656Z,71.07
2023-01-26T01:03:59.032Z,75.70
2023-01-26T01:06:27.172Z,70.70
2023-01-26T01:08:56.568Z,73.80
2023-01-26T01:11:24.992Z,72.00
2023-01-26T01:13:53.043Z,70.90
2023-01-26T01:16:21.242Z,73.20
2023-01-26T01:18:49.411Z,71.77
2023-01-26T01:21:18.660Z,71.90
2023-01-26T01:23:47.163Z,74.70
2023-01-26T01:26:17.494Z,73.03
2023-01-26T01:28:45.746Z,76.90
2023-01-26T01:31:15.418Z,74.03
2023-01-26T01:33:44.247Z,74.40
2023-01-26T01:36:14.210Z,73.13
2023-01-26T01:38:42.940Z,73.60
2023-01-26T01:41:11.993Z,72.80
2023-01-26T01:43:42.194Z,71.93
2023-01-26T01:46:18.082Z,72.20
2023-01-26T01:48:54.153Z,72.93
2023-01-26T01:51:28.848Z,74.23
2023-01-26T01:53:59.554Z,72.60
2023-01-26T01:56:30.621Z,71.27
2023-01-26T01:59:01.919Z,73.13
2023-01-26T02:01:30.543Z,75.77
2023-01-26T02:04:02.079Z,70.93
2023-01-26T02:06:35.279Z,72.43
2023-01-26T02:09:05.539Z,73.70
2023-01-26T02:11:38.303Z,73.33
2023-01-26T02:14:10.688Z,77.90
2023-01-26T02:16:39.977Z,74.97
2023-01-26T02:19:15.697Z,76.33
2023-01-26T02:21:46.046Z,77.23
2023-01-26T02:24:22.947Z,79.30
2023-01-26T02:26:54.631Z,73.97
2023-01-26T02:29:23.795Z,77.67
2023-01-26T02:31:53.545Z,74.60
2023-01-26T02:34:24.143Z,74.17
2023-01-26T02:36:59.463Z,77.10
2023-01-26T02:39:42.199Z,76.50
2023-01-26T02:42:29.691Z,79.67
2023-01-26T02:44:58.102Z,77.33
2023-01-26T02:47:26.227Z,76.27
2023-01-26T02:49:53.336Z,78.80
2023-01-26T02:52:23.154Z,79.30
2023-01-26T02:55:08.766Z,79.50
2023-01-26T02:57:38.368Z,75.20
2023-01-26T03:00:10.911Z,78.73
2023-01-26T03:02:39.677Z,77.77
2023-01-26T03:05:08.393Z,76.10
2023-01-26T03:07:36.536Z,75.70
2023-01-26T03:10:05.424Z,76.00
2023-01-26T03:12:33.664Z,77.10
2023-01-26T03:15:20.441Z,76.30
2023-01-26T03:17:48.774Z,77.57
2023-01-26T03:20:34.853Z,78.00
2023-01-26T03:23:20.339Z,80.87
2023-01-26T03:26:05.772Z,80.00
2023-01-26T03:28:33.785Z,81.70
2023-01-26T03:31:08.229Z,79.93
2023-01-26T03:33:36.285Z,81.10
2023-01-26T03:36:04.346Z,81.00
2023-01-26T03:38:32.450Z,80.27
2023-01-26T03:41:17.820Z,80.90
2023-01-26T03:44:03.225Z,81.70
2023-01-26T03:46:50.106Z,80.57
2023-01-26T03:49:35.875Z,82.87
2023-01-26T03:52:21.360Z,83.03
2023-01-26T03:55:06.844Z,82.77
2023-01-26T03:57:34.942Z,82.27
2023-01-26T04:00:03.165Z,80.57
2023-01-26T04:02:50.562Z,81.10
2023-01-26T04:05:35.920Z,80.63
2023-01-26T04:08:27.074Z,82.60
2023-01-26T04:10:55.941Z,81.83
2023-01-26T04:13:43.034Z,80.17
2023-01-26T04:16:29.365Z,80.00
2023-01-26T04:19:16.403Z,82.97
2023-01-26T04:21:44.428Z,82.10
2023-01-26T04:24:16.750Z,84.43
2023-01-26T04:26:45.492Z,84.00
2023-01-26T04:29:14.897Z,83.60
2023-01-26T04:31:44.198Z,85.27
2023-01-26T04:34:14.961Z,83.40
2023-01-26T04:36:43.559Z,83.27
2023-01-26T04:39:12.107Z,83.53
2023-01-26T04:41:42.266Z,83.07
2023-01-26T04:44:10.594Z,80.40
2023-01-26T04:46:38.818Z,83.50
2023-01-26T04:49:06.854Z,82.53
2023-01-26T04:51:36.750Z,84.30
2023-01-26T04:54:05.044Z,85.97
2023-01-26T04:56:34.634Z,86.77
2023-01-26T04:59:05.150Z,81.13
2023-01-26T05:01:33.649Z,78.10
2023-01-26T05:04:02.643Z,87.93
2023-01-26T05:06:30.722Z,84.17
2023-01-26T05:09:00.259Z,82.30
2023-01-26T05:11:28.373Z,86.10
2023-01-26T05:13:56.542Z,85.10
2023-01-26T05:16:25.212Z,82.40
2023-01-26T05:18:54.261Z,82.80
2023-01-26T05:21:24.602Z,80.57
2023-01-26T05:23:52.840Z,82.17
2023-01-26T05:26:22.324Z,83.83
2023-01-26T05:28:50.413Z,84.47
2023-01-26T05:31:18.528Z,84.20
2023-01-26T05:33:46.556Z,84.80
2023-01-26T05:36:14.448Z,80.80
2023-01-26T05:38:43.549Z,83.40
2023-01-26T05:41:11.578Z,82.50
2023-01-26T05:43:41.077Z,84.23
2023-01-26T05:46:09.225Z,81.07
2023-01-26T05:48:37.365Z,80.53
2023-01-26T05:51:05.604Z,79.13
2023-01-26T05:53:33.681Z,81.83
2023-01-26T05:56:01.813Z,82.10
2023-01-26T05:58:29.840Z,85.57
2023-01-26T06:00:59.261Z,86.50
2023-01-26T06:03:27.312Z,81.70
2023-01-26T06:05:55.791Z,84.00
2023-01-26T06:08:23.845Z,85.97
2023-01-26T06:10:51.949Z,79.50
2023-01-26T06:13:20.040Z,80.27
2023-01-26T06:15:48.087Z,81.03
2023-01-26T06:18:17.521Z,78.30
2023-01-26T06:20:45.607Z,76.87
2023-01-26T06:23:13.797Z,76.47
2023-01-26T06:25:42.055Z,76.20
2023-01-26T06:28:10.184Z,77.43
2023-01-26T06:30:38.421Z,80.43
2023-01-26T06:33:07.572Z,79.30
2023-01-26T06:35:37.163Z,78.23
2023-01-26T06:38:05.397Z,74.67
2023-01-26T06:40:33.449Z,75.30
2023-01-26T06:43:01.433Z,78.27
2023-01-26T06:45:29.488Z,77.13
2023-01-26T06:47:57.595Z,77.10
2023-01-26T06:50:32.481Z,76.27
2023-01-26T06:53:05.616Z,78.97
2023-01-26T06:55:37.237Z,81.20
2023-01-26T06:58:05.319Z,78.80
2023-01-26T07:00:33.433Z,76.90
2023-01-26T07:03:01.559Z,80.23
2023-01-26T07:05:29.690Z,82.80
2023-01-26T07:08:00.312Z,79.83
2023-01-26T07:10:29.749Z,78.40
2023-01-26T07:12:57.798Z,76.47
2023-01-26T07:15:25.896Z,77.30
2023-01-26T07:17:54.644Z,81.20
2023-01-26T07:20:22.902Z,77.40
2023-01-26T07:22:51.183Z,84.10
2023-01-26T07:25:19.575Z,80.17
2023-01-26T07:27:49.099Z,79.70
2023-01-26T07:30:17.984Z,86.87
2023-01-26T07:32:46.074Z,86.63
2023-01-26T07:35:14.132Z,86.10
2023-01-26T07:37:42.294Z,88.30
2023-01-26T07:40:12.025Z,88.40
2023-01-26T07:42:40.301Z,85.23
2023-01-26T07:45:10.612Z,86.70
2023-01-26T07:47:38.779Z,85.70
2023-01-26T07:50:07.864Z,85.00
2023-01-26T07:52:35.952Z,84.03
2023-01-26T07:55:04.141Z,84.33
2023-01-26T07:57:33.919Z,87.43
2023-01-26T08:00:02.004Z,84.23
2023-01-26T08:02:31.478Z,86.90
2023-01-26T08:05:00.163Z,85.20
2023-01-26T08:07:28.269Z,88.43
2023-01-26T08:09:56.327Z,90.00
2023-01-26T08:12:24.446Z,86.37
2023-01-26T08:14:52.651Z,88.30
2023-01-26T08:17:20.990Z,86.00
2023-01-26T08:19:50.445Z,92.00
2023-01-26T08:22:18.540Z,87.87
2023-01-26T08:24:46.602Z,81.67
2023-01-26T08:27:16.129Z,85.60
2023-01-26T08:29:44.208Z,87.10
2023-01-26T08:32:12.350Z,82.60
2023-01-26T08:34:40.444Z,85.30
2023-01-26T08:37:09.869Z,73.03
2023-01-26T08:39:37.943Z,74.80
2023-01-26T08:42:06.067Z,77.83
2023-01-26T08:44:34.192Z,75.67
2023-01-26T08:47:02.229Z,74.67
2023-01-26T08:49:30.315Z,74.70
2023-01-26T08:51:58.407Z,78.50
2023-01-26T08:54:28.721Z,83.10
2023-01-26T08:56:56.778Z,81.77
2023-01-26T08:59:24.901Z,83.60
2023-01-26T09:01:52.942Z,85.07
2023-01-26T09:04:21.097Z,81.13
2023-01-26T09:06:49.165Z,82.47
2023-01-26T09:09:17.241Z,87.40
2023-01-26T09:11:46.683Z,86.73
2023-01-26T09:14:14.789Z,84.97
2023-01-26T09:16:42.951Z,85.90
2023-01-26T09:19:10.932Z,91.90
2023-01-26T09:21:39.041Z,92.67
2023-01-26T09:24:07.784Z,93.13
2023-01-26T09:26:36.119Z,95.77
2023-01-26T09:29:05.530Z,95.73
2023-01-26T09:31:33.783Z,99.40
2023-01-26T09:34:01.959Z,97.83
2023-01-26T09:36:30.078Z,99.70
2023-01-26T09:38:58.122Z,101.33
2023-01-26T09:41:43.711Z,100.27
2023-01-26T09:44:17.581Z,97.40
2023-01-26T09:47:00.528Z,101.77
2023-01-26T09:49:43.991Z,102.80
2023-01-26T09:52:19.125Z,104.60
2023-01-26T09:54:50.863Z,102.37
2023-01-26T09:57:21.939Z,104.90
2023-01-26T09:59:57.997Z,106.10
2023-01-26T10:02:39.043Z,105.70
2023-01-26T10:05:16.262Z,109.07
2023-01-26T10:07:45.644Z,107.50
2023-01-26T10:10:20.113Z,106.93
2023-01-26T10:12:50.677Z,103.80
2023-01-26T10:15:30.751Z,106.90
2023-01-26T10:18:01.637Z,106.10
2023-01-26T10:20:32.652Z,108.87
2023-01-26T10:23:05.375Z,106.63
2023-01-26T10:25:36.305Z,107.27
2023-01-26T10:28:14.642Z,109.37
2023-01-26T10:30:47.144Z,103.00
2023-01-26T10:33:18.318Z,105.77
2023-01-26T10:35:46.521Z,107.40
2023-01-26T10:38:46.222Z,103.40
2023-01-26T10:41:28.742Z,104.87
2023-01-26T10:43:59.773Z,100.00
2023-01-26T10:46:32.067Z,97.60
2023-01-26T10:49:02.688Z,103.83
2023-01-26T10:51:33.296Z,104.57
2023-01-26T10:54:23.099Z,109.23
2023-01-26T10:56:54.480Z,111.40
2023-01-26T10:59:33.116Z,112.77
2023-01-26T11:02:04.486Z,110.27
2023-01-26T11:04:32.566Z,105.47
2023-01-26T11:07:25.094Z,106.70
2023-01-26T11:09:53.637Z,109.80
2023-01-26T11:12:23.272Z,102.43
2023-01-26T11:15:04.002Z,107.60
2023-01-26T11:17:39.334Z,109.10
2023-01-26T11:20:26.573Z,105.50
2023-01-26T11:23:05.705Z,99.30
2023-01-26T11:25:42.313Z,100.50
2023-01-26T11:28:25.667Z,107.30
2023-01-26T11:31:11.245Z,109.93
2023-01-26T11:33:47.772Z,105.97
2023-01-26T11:36:26.992Z,98.13
2023-01-26T11:39:04.443Z,108.70
2023-01-26T11:41:47.328Z,106.23
2023-01-26T11:44:31.058Z,110.23
2023-01-26T11:47:17.831Z,112.10
2023-01-26T11:50:18.486Z,113.20
2023-01-26T11:52:59.261Z,106.30
2023-01-26T11:55:38.928Z,105.03
2023-01-26T11:58:24.153Z,97.70
2023-01-26T12:00:56.033Z,96.73
2023-01-26T12:03:28.259Z,101.53
2023-01-26T12:06:03.586Z,96.53
2023-01-26T12:08:39.466Z,103.13
2023-01-26T12:11:24.080Z,106.03
2023-01-26T12:14:04.827Z,95.37
2023-01-26T12:16:41.925Z,95.93
2023-01-26T12:19:32.372Z,82.77
2023-01-26T12:22:11.825Z,76.67
2023-01-26T12:25:16.253Z,75.37
2023-01-26T12:27:38.482Z,68.00
2023-01-26T12:30:23.494Z,63.00
2023-01-26T12:32:52.195Z,52.73
2023-01-26T12:35:29.842Z,49.93
2023-01-26T12:38:17.366Z,38.30
2023-01-26T12:40:54.143Z,30.90
2023-01-26T12:43:37.839Z,27.97
2023-01-26T12:46:07.446Z,27.10
2023-01-26T12:48:42.602Z,21.30
2023-01-26T12:51:16.241Z,20.70
2023-01-26T12:53:55.777Z,20.40
2023-01-26T12:56:29.434Z,18.77
2023-01-26T12:58:59.320Z,20.07
2023-01-26T13:01:37.442Z,18.47
2023-01-26T13:04:09.844Z,18.33
2023-01-26T13:06:38.052Z,17.63
2023-01-26T13:09:21.281Z,17.60
2023-01-26T13:11:51.753Z,18.20
2023-01-26T13:14:37.689Z,16.87
2023-01-26T13:17:48.303Z,17.13
2023-01-26T13:20:41.899Z,16.23
2023-01-26T13:23:38.378Z,16.13
2023-01-26T13:26:51.725Z,16.13
2023-01-26T13:29:36.511Z,16.27
2023-01-26T13:32:38.700Z,16.60
2023-01-26T13:35:11.788Z,16.60
2023-01-26T13:37:47.499Z,16.17
2023-01-26T13:40:20.026Z,15.97
2023-01-26T13:42:56.109Z,15.80
2023-01-26T13:45:33.805Z,16.10
2023-01-26T13:48:05.401Z,16.10
2023-01-26T13:50:37.671Z,16.40
2023-01-26T13:53:32.123Z,17.60
2023-01-26T13:56:01.844Z,17.53
2023-01-26T13:58:29.935Z,19.37
2023-01-26T14:01:04.127Z,18.00
2023-01-26T14:03:32.339Z,17.23
2023-01-26T14:06:05.174Z,17.60
2023-01-26T14:08:34.759Z,17.47
2023-01-26T14:11:05.873Z,16.97
2023-01-26T14:13:37.196Z,17.90
2023-01-26T14:16:08.608Z,17.77
2023-01-26T14:18:36.738Z,18.27
2023-01-26T14:21:06.558Z,19.53
2023-01-26T14:23:36.532Z,19.13
2023-01-26T14:26:06.639Z,18.90
2023-01-26T14:28:37.962Z,18.90
2023-01-26T14:31:16.612Z,19.60
2023-01-26T14:33:45.335Z,19.60
2023-01-26T14:36:22.451Z,20.40
2023-01-26T14:38:52.643Z,20.47
2023-01-26T14:41:25.041Z,21.07
2023-01-26T14:43:57.881Z,21.80
2023-01-26T14:46:32.005Z,21.80
2023-01-26T14:49:07.362Z,22.37
2023-01-26T14:51:36.795Z,21.40
2023-01-26T14:54:11.792Z,22.50
2023-01-26T14:56:41.910Z,22.00
2023-01-26T14:59:20.097Z,22.13
2023-01-26T15:01:50.051Z,22.37
2023-01-26T15:04:25.915Z,22.83
2023-01-26T15:06:53.979Z,23.20
2023-01-26T15:09:24.166Z,23.97
2023-01-26T15:12:15.138Z,23.33
2023-01-26T15:14:51.217Z,24.53
2023-01-26T15:17:31.699Z,24.93
2023-01-26T15:19:59.869Z,25.30
2023-01-26T15:22:28.336Z,25.47
2023-01-26T15:25:17.995Z,25.90
2023-01-26T15:27:51.935Z,26.90
2023-01-26T15:30:24.275Z,27.90
2023-01-26T15:32:54.021Z,29.40
2023-01-26T15:35:25.228Z,28.90
2023-01-26T15:38:02.565Z,30.73
2023-01-26T15:40:31.820Z,30.30
2023-01-26T15:43:13.595Z,31.03
2023-01-26T15:45:43.519Z,28.90
2023-01-26T15:48:12.939Z,31.13
2023-01-26T15:50:41.048Z,31.40
2023-01-26T15:53:14.323Z,29.73
2023-01-26T15:55:44.103Z,30.60
2023-01-26T15:58:12.098Z,30.13
2023-01-26T16:00:40.365Z,31.97
2023-01-26T16:03:16.086Z,29.90
2023-01-26T16:05:44.415Z,29.67
2023-01-26T16:08:12.499Z,27.93
2023-01-26T16:10:40.680Z,27.17
2023-01-26T16:13:10.824Z,29.63
2023-01-26T16:15:42.620Z,27.43
2023-01-26T16:18:11.006Z,26.90
2023-01-26T16:20:42.164Z,27.90
2023-01-26T16:23:18.534Z,26.70
2023-01-26T16:25:47.161Z,22.80
2023-01-26T16:28:15.570Z,23.20
2023-01-26T16:30:45.039Z,23.50
2023-01-26T16:33:14.675Z,22.80
2023-01-26T16:35:44.573Z,22.70
2023-01-26T16:38:13.205Z,23.80
2023-01-26T16:40:42.320Z,23.33
2023-01-26T16:43:16.771Z,23.70
2023-01-26T16:45:44.839Z,24.23
2023-01-26T16:48:14.825Z,23.90
2023-01-26T16:50:45.695Z,23.70
2023-01-26T16:53:20.100Z,23.43
2023-01-26T16:55:48.169Z,23.17
2023-01-26T16:58:16.207Z,23.90
2023-01-26T17:00:44.733Z,25.03
2023-01-26T17:03:13.911Z,25.20
2023-01-26T17:05:43.713Z,27.23
2023-01-26T17:08:11.831Z,26.10
2023-01-26T17:10:55.532Z,27.93
2023-01-26T17:13:28.391Z,31.13
2023-01-26T17:15:57.818Z,28.07
2023-01-26T17:18:26.000Z,30.13
2023-01-26T17:20:55.432Z,28.40
2023-01-26T17:23:23.491Z,28.17
2023-01-26T17:25:58.438Z,26.93
2023-01-26T17:28:27.716Z,27.73
2023-01-26T17:30:55.811Z,27.00
2023-01-26T17:33:23.845Z,27.27
2023-01-26T17:36:01.781Z,27.97
2023-01-26T17:38:29.810Z,28.20
2023-01-26T17:40:58.645Z,28.00
2023-01-26T17:43:27.053Z,28.53
2023-01-26T17:46:02.968Z,28.50
2023-01-26T17:48:31.226Z,28.40
2023-01-26T17:50:59.289Z,28.80
2023-01-26T17:53:28.944Z,28.13
2023-01-26T17:55:56.990Z,28.63
2023-01-26T17:58:25.170Z,29.20
2023-01-26T18:00:53.408Z,29.73
2023-01-26T18:03:26.260Z,31.65
2023-01-26T18:05:55.216Z,30.40
2023-01-26T18:08:24.037Z,29.67
2023-01-26T18:10:58.726Z,28.73
2023-01-26T18:13:27.220Z,30.00
2023-01-26T18:15:55.373Z,29.57
2023-01-26T18:18:23.885Z,30.47
2023-01-26T18:20:52.770Z,30.27
2023-01-26T18:23:21.620Z,29.40
2023-01-26T18:25:49.887Z,27.97
2023-01-26T18:28:19.454Z,29.10
2023-01-26T18:30:48.476Z,28.40
2023-01-26T18:33:16.645Z,30.33
2023-01-26T18:35:45.141Z,26.87
2023-01-26T18:38:13.309Z,27.03
2023-01-26T18:40:41.495Z,28.97
2023-01-26T18:43:10.766Z,28.70
2023-01-26T18:45:43.467Z,27.70
2023-01-26T18:48:11.628Z,27.80
2023-01-26T18:50:40.611Z,27.50
2023-01-26T18:53:08.742Z,28.90
2023-01-26T18:55:38.073Z,27.27
2023-01-26T18:58:06.237Z,27.73
2023-01-26T19:00:35.040Z,27.13
2023-01-26T19:03:04.800Z,28.70
2023-01-26T19:05:32.901Z,26.53
2023-01-26T19:08:09.971Z,26.87
2023-01-26T19:10:39.036Z,26.97
2023-01-26T19:13:07.912Z,27.47
2023-01-26T19:15:36.431Z,27.13
2023-01-26T19:18:06.031Z,26.13
2023-01-26T19:20:34.287Z,26.90
2023-01-26T19:23:03.918Z,26.43
2023-01-26T19:25:35.926Z,28.07
2023-01-26T19:28:04.132Z,27.63
2023-01-26T19:30:33.255Z,28.47
2023-01-26T19:33:19.124Z,27.37
2023-01-26T19:35:48.387Z,27.30
2023-01-26T19:38:16.839Z,27.40
2023-01-26T19:40:45.791Z,28.23
2023-01-26T19:43:13.923Z,29.53
2023-01-26T19:45:42.353Z,30.20
2023-01-26T19:48:10.571Z,30.80
2023-01-26T19:50:38.694Z,30.33
2023-01-26T19:53:08.240Z,30.17
2023-01-26T19:55:36.424Z,31.50
2023-01-26T19:58:04.508Z,31.13
2023-01-26T20:00:32.778Z,32.10
2023-01-26T20:03:01.274Z,31.30
2023-01-26T20:05:29.375Z,32.30
2023-01-26T20:07:58.088Z,32.17
2023-01-26T20:10:28.039Z,33.50
2023-01-26T20:12:57.381Z,35.57
2023-01-26T20:15:25.557Z,35.67
2023-01-26T20:17:53.677Z,35.70
2023-01-26T20:20:21.752Z,36.13
2023-01-26T20:22:49.929Z,36.37
2023-01-26T20:25:18.076Z,38.50
2023-01-26T20:27:47.646Z,38.50
2023-01-26T20:30:16.845Z,37.07
2023-01-26T20:32:45.216Z,37.53
2023-01-26T20:35:14.716Z,37.77
2023-01-26T20:37:43.042Z,37.27
2023-01-26T20:40:12.808Z,38.13
2023-01-26T20:42:41.049Z,39.80
2023-01-26T20:45:12.182Z,40.30
2023-01-26T20:47:40.453Z,42.17
2023-01-26T20:50:10.363Z,42.27
2023-01-26T20:52:39.337Z,42.63
2023-01-26T20:55:08.270Z,45.03
2023-01-26T20:57:36.640Z,44.43
2023-01-26T21:00:05.554Z,45.47
2023-01-26T21:02:35.191Z,47.47
2023-01-26T21:05:03.555Z,49.20
2023-01-26T21:07:31.594Z,53.42
2023-01-26T21:09:59.663Z,53.70
2023-01-26T21:12:28.114Z,51.43
2023-01-26T21:14:56.137Z,53.67
2023-01-26T21:17:24.474Z,52.47
2023-01-26T21:19:53.955Z,50.40
2023-01-26T21:22:22.005Z,49.97
2023-01-26T21:24:50.071Z,50.83
2023-01-26T21:27:18.340Z,51.60
2023-01-26T21:29:46.424Z,52.90
2023-01-26T21:32:15.688Z,55.20
2023-01-26T21:34:43.996Z,40.73
2023-01-26T21:37:13.422Z,42.23
2023-01-26T21:39:41.485Z,43.17
2023-01-26T21:42:09.550Z,45.40
2023-01-26T21:44:57.720Z,45.50
2023-01-26T21:47:25.736Z,47.27
2023-01-26T21:49:53.865Z,47.77
2023-01-26T21:52:40.876Z,49.97
2023-01-26T21:55:09.555Z,49.23
2023-01-26T21:57:55.195Z,52.53
2023-01-26T22:00:23.515Z,54.70
2023-01-26T22:02:51.547Z,55.97
2023-01-26T22:05:19.647Z,55.37
2023-01-26T22:07:49.093Z,56.23
2023-01-26T22:10:18.014Z,56.03
2023-01-26T22:12:46.134Z,57.63
2023-01-26T22:15:14.392Z,58.20
2023-01-26T22:17:42.435Z,60.07
2023-01-26T22:20:12.184Z,60.20
2023-01-26T22:22:40.432Z,61.50
2023-01-26T22:25:10.736Z,64.03
2023-01-26T22:27:40.891Z,65.80
2023-01-26T22:30:10.638Z,68.10
2023-01-26T22:32:38.677Z,68.10
2023-01-26T22:35:07.258Z,73.43
2023-01-26T22:37:35.335Z,70.60
2023-01-26T22:40:03.415Z,71.37
2023-01-26T22:42:32.972Z,71.77
2023-01-26T22:45:01.078Z,71.80
2023-01-26T22:47:29.256Z,75.43
2023-01-26T22:49:57.432Z,75.83
2023-01-26T22:52:25.589Z,72.33
2023-01-26T22:54:53.940Z,71.33
2023-01-26T22:57:22.079Z,72.10
2023-01-26T22:59:51.476Z,74.10
2023-01-26T23:02:19.714Z,72.50
2023-01-26T23:04:47.805Z,72.70
2023-01-26T23:07:15.912Z,70.90
2023-01-26T23:09:43.953Z,63.80
2023-01-26T23:12:12.023Z,67.03
2023-01-26T23:14:40.103Z,67.17
2023-01-26T23:17:09.518Z,66.30
2023-01-26T23:19:37.584Z,67.87
2023-01-26T23:22:05.858Z,67.20
2023-01-26T23:24:33.978Z,67.83
2023-01-26T23:27:02.082Z,67.97
2023-01-26T23:29:30.194Z,71.17
2023-01-26T23:31:58.320Z,68.63
2023-01-26T23:34:27.768Z,68.17
2023-01-26T23:36:55.800Z,67.67
2023-01-26T23:39:23.862Z,68.97
2023-01-26T23:41:51.929Z,66.43
2023-01-26T23:44:20.035Z,62.70
2023-01-26T23:46:48.122Z,60.10
2023-01-26T23:49:16.709Z,56.07
2023-01-26T23:51:46.093Z,50.90
2023-01-26T23:54:14.146Z,49.23
2023-01-26T23:56:42.220Z,48.87
2023-01-26T23:59:10.840Z,48.70
